createdAt,value
2019-04-10T00:01:55.138Z,96995.65
2019-04-10T00:04:23.595Z,97007.46
2019-04-10T00:06:52.259Z,97004.84
2019-04-10T00:09:21.038Z,97000.08
2019-04-10T00:11:49.483Z,96996.52
2019-04-10T00:14:18.570Z,97005.70
2019-04-10T00:16:46.990Z,97003.39
2019-04-10T00:19:15.338Z,97003.47
2019-04-10T00:21:43.644Z,97009.89
2019-04-10T00:24:12.098Z,97008.55
2019-04-10T00:26:41.620Z,96998.87
2019-04-10T00:29:10.054Z,97010.30
2019-04-10T00:31:38.362Z,97004.13
2019-04-10T00:34:07.377Z,97008.95
2019-04-10T00:36:35.784Z,97005.30
2019-04-10T00:39:06.457Z,97004.02
2019-04-10T00:41:34.835Z,97001.95
2019-04-10T00:44:03.607Z,97001.39
2019-04-10T00:46:32.554Z,97001.33
2019-04-10T00:49:00.909Z,97001.95
2019-04-10T00:51:29.198Z,96997.11
2019-04-10T00:53:57.609Z,96996.88
2019-04-10T00:56:26.311Z,96997.98
2019-04-10T00:58:55.415Z,96999.32
2019-04-10T01:01:23.953Z,96991.55
2019-04-10T01:03:52.296Z,96992.59
2019-04-10T01:06:20.705Z,96991.48
2019-04-10T01:08:49.284Z,96990.94
2019-04-10T01:11:17.670Z,96986.09
2019-04-10T01:13:46.035Z,96981.58
2019-04-10T01:16:16.270Z,96980.54
2019-04-10T01:18:45.615Z,96985.38
2019-04-10T01:21:14.487Z,96983.89
2019-04-10T01:23:42.852Z,96978.81
2019-04-10T01:26:11.196Z,96978.33
2019-04-10T01:28:40.545Z,96980.53
2019-04-10T01:31:09.263Z,96980.05
2019-04-10T01:33:37.554Z,96979.56
2019-04-10T01:36:06.935Z,96981.40
2019-04-10T01:38:35.617Z,96974.19
2019-04-10T01:41:04.264Z,96974.50
2019-04-10T01:43:32.967Z,96972.91
2019-04-10T01:46:02.107Z,96969.17
2019-04-10T01:48:30.604Z,96964.83
2019-04-10T01:50:59.090Z,96970.31
2019-04-10T01:53:28.035Z,96968.48
2019-04-10T01:55:57.527Z,96963.09
2019-04-10T01:58:27.279Z,96963.34
2019-04-10T02:01:03.888Z,96963.80
2019-04-10T02:03:32.396Z,96960.30
2019-04-10T02:06:01.078Z,96961.89
2019-04-10T02:08:29.855Z,96960.55
2019-04-10T02:10:58.658Z,96958.75
2019-04-10T02:13:27.629Z,96956.92
2019-04-10T02:15:56.675Z,96958.95
2019-04-10T02:18:25.537Z,96954.23
2019-04-10T02:20:53.932Z,96951.77
2019-04-10T02:23:22.612Z,96949.16
2019-04-10T02:25:50.947Z,96959.37
2019-04-10T02:28:19.243Z,96950.02
2019-04-10T02:30:47.939Z,96949.47
2019-04-10T02:33:17.648Z,96942.87
2019-04-10T02:35:47.767Z,96946.59
2019-04-10T02:38:33.865Z,96945.31
2019-04-10T02:40:47.492Z,96943.55
2019-04-10T02:43:16.386Z,96940.38
2019-04-10T02:45:44.764Z,96940.93
2019-04-10T02:48:13.172Z,96947.39
2019-04-10T02:50:42.846Z,96941.05
2019-04-10T02:53:13.075Z,96940.86
2019-04-10T02:55:43.145Z,96944.90
2019-04-10T02:58:11.678Z,96948.38
2019-04-10T03:00:42.032Z,96947.77
2019-04-10T03:03:11.887Z,96948.62
2019-04-10T03:05:40.768Z,96951.56
2019-04-10T03:08:11.233Z,96950.16
2019-04-10T03:10:47.413Z,96953.09
2019-04-10T03:13:09.518Z,96952.53
2019-04-10T03:15:39.204Z,96948.81
2019-04-10T03:18:08.341Z,96948.33
2019-04-10T03:20:36.705Z,96951.56
2019-04-10T03:23:05.315Z,96949.91
2019-04-10T03:25:35.093Z,96950.46
2019-04-10T03:28:03.579Z,96948.81
2019-04-10T03:30:33.998Z,96946.67
2019-04-10T03:33:06.607Z,96952.11
2019-04-10T03:35:35.669Z,96951.56
2019-04-10T03:38:05.733Z,96948.38
2019-04-10T03:40:34.137Z,96952.66
2019-04-10T03:43:03.541Z,96960.23
2019-04-10T03:45:32.780Z,96956.27
2019-04-10T03:48:02.003Z,96960.30
2019-04-10T03:50:30.373Z,96959.27
2019-04-10T03:53:00.262Z,96957.67
2019-04-10T03:55:29.231Z,96968.73
2019-04-10T03:57:59.247Z,96963.69
2019-04-10T04:00:27.886Z,96965.89
2019-04-10T04:02:56.314Z,96966.98
2019-04-10T04:05:24.674Z,96969.92
2019-04-10T04:07:53.043Z,96963.50
2019-04-10T04:10:21.463Z,96961.13
2019-04-10T04:12:50.758Z,96965.95
2019-04-10T04:15:19.882Z,96962.47
2019-04-10T04:17:48.566Z,96960.94
2019-04-10T04:20:17.020Z,96965.27
2019-04-10T04:22:46.134Z,96961.61
2019-04-10T04:25:14.892Z,96960.56
2019-04-10T04:27:44.195Z,96961.20
2019-04-10T04:30:12.760Z,96969.88
2019-04-10T04:32:42.107Z,96963.77
2019-04-10T04:35:11.221Z,96966.32
2019-04-10T04:37:42.241Z,96970.20
2019-04-10T04:40:11.110Z,96974.09
2019-04-10T04:42:40.646Z,96966.27
2019-04-10T04:45:09.197Z,96971.65
2019-04-10T04:47:37.505Z,96975.43
2019-04-10T04:50:06.093Z,96971.65
2019-04-10T04:52:34.990Z,96976.53
2019-04-10T04:57:43.198Z,96990.45
2019-04-10T05:00:11.804Z,96987.09
2019-04-10T05:02:40.166Z,96987.03
2019-04-10T05:05:08.846Z,96994.24
2019-04-10T05:07:37.635Z,96995.94
2019-04-10T05:10:11.107Z,96997.53
2019-04-10T05:12:39.567Z,97002.05
2019-04-10T05:15:09.451Z,97002.91
2019-04-10T05:17:39.320Z,97011.52
2019-04-10T05:20:09.068Z,97010.67
2019-04-10T05:22:37.658Z,97011.16
2019-04-10T05:25:06.914Z,97010.36
2019-04-10T05:27:35.238Z,97013.55
2019-04-10T05:30:04.486Z,97014.64
2019-04-10T05:32:32.979Z,97020.07
2019-04-10T05:35:04.311Z,97018.73
2019-04-10T05:37:31.684Z,97016.28
2019-04-10T05:39:59.965Z,97019.72
2019-04-10T05:42:28.979Z,97018.92
2019-04-10T05:44:58.659Z,97016.23
2019-04-10T05:47:28.029Z,97020.21
2019-04-10T05:49:57.631Z,97022.16
2019-04-10T05:52:26.933Z,97022.45
2019-04-10T05:54:55.741Z,97023.25
2019-04-10T05:57:24.583Z,97024.70
2019-04-10T05:59:53.045Z,97019.52
2019-04-10T06:02:21.411Z,97023.11
2019-04-10T06:04:49.821Z,97028.23
2019-04-10T06:07:19.172Z,97021.82
2019-04-10T06:09:55.902Z,97027.64
2019-04-10T06:12:18.141Z,97032.52
2019-04-10T06:14:46.439Z,97031.37
2019-04-10T06:17:14.804Z,97034.66
2019-04-10T06:19:43.333Z,97038.33
2019-04-10T06:22:12.747Z,97036.94
2019-04-10T06:24:41.189Z,97041.41
2019-04-10T06:27:10.349Z,97039.88
2019-04-10T06:29:39.310Z,97037.98
2019-04-10T06:32:07.917Z,97039.27
2019-04-10T06:34:36.451Z,97036.50
2019-04-10T06:37:06.116Z,97038.58
2019-04-10T06:39:35.229Z,97040.42
2019-04-10T06:42:04.519Z,97030.95
2019-04-10T06:44:34.169Z,97031.20
2019-04-10T06:47:02.711Z,97034.14
2019-04-10T06:49:31.168Z,97029.67
2019-04-10T06:51:59.752Z,97022.59
2019-04-10T06:54:29.194Z,97030.66
2019-04-10T06:56:58.601Z,97030.71
2019-04-10T06:59:28.144Z,97025.89
2019-04-10T07:02:05.649Z,97029.67
2019-04-10T07:04:28.487Z,97027.83
2019-04-10T07:07:04.667Z,97029.56
2019-04-10T07:09:27.240Z,97024.98
2019-04-10T07:11:59.891Z,97031.75
2019-04-10T07:14:26.809Z,97029.06
2019-04-10T07:16:55.242Z,97027.97
2019-04-10T07:19:24.141Z,97032.71
2019-04-10T07:21:52.429Z,97032.71
2019-04-10T07:24:20.876Z,97032.96
2019-04-10T07:26:50.786Z,97037.54
2019-04-10T07:29:21.019Z,97038.97
2019-04-10T07:31:49.436Z,97041.16
2019-04-10T07:34:23.875Z,97044.64
2019-04-10T07:36:47.943Z,97043.55
2019-04-10T07:39:17.260Z,97040.23
2019-04-10T07:41:45.593Z,97045.69
2019-04-10T07:44:14.077Z,97048.05
2019-04-10T07:46:42.982Z,97053.12
2019-04-10T07:49:12.926Z,97057.95
2019-04-10T07:51:42.396Z,97058.24
2019-04-10T07:54:11.769Z,97059.84
2019-04-10T07:56:40.329Z,97055.15
2019-04-10T07:59:08.848Z,97053.01
2019-04-10T08:01:37.593Z,97059.78
2019-04-10T08:04:06.292Z,97056.45
2019-04-10T08:06:35.300Z,97049.73
2019-04-10T08:09:05.091Z,97055.25
2019-04-10T08:11:33.808Z,97058.44
2019-04-10T08:14:03.469Z,97061.17
2019-04-10T08:16:32.896Z,97067.05
2019-04-10T08:19:01.890Z,97065.59
2019-04-10T08:21:31.592Z,97069.73
2019-04-10T08:24:00.429Z,97068.04
2019-04-10T08:26:28.805Z,97073.31
2019-04-10T08:28:57.310Z,97070.38
2019-04-10T08:31:25.926Z,97079.05
2019-04-10T08:33:54.757Z,97080.38
2019-04-10T08:36:23.499Z,97078.58
2019-04-10T08:38:52.804Z,97078.08
2019-04-10T08:41:21.358Z,97081.06
2019-04-10T08:43:50.305Z,97084.69
2019-04-10T08:46:19.752Z,97080.45
2019-04-10T08:48:48.130Z,97076.40
2019-04-10T08:51:17.084Z,97087.14
2019-04-10T08:53:46.704Z,97083.84
2019-04-10T08:56:16.138Z,97080.69
2019-04-10T08:58:45.343Z,97079.89
2019-04-10T09:01:13.640Z,97076.41
2019-04-10T09:03:43.312Z,97079.84
2019-04-10T09:06:11.858Z,97077.20
2019-04-10T09:08:41.964Z,97080.54
2019-04-10T09:11:11.227Z,97075.61
2019-04-10T09:13:40.897Z,97077.97
2019-04-10T09:16:10.046Z,97078.70
2019-04-10T09:18:39.058Z,97081.09
2019-04-10T09:21:07.424Z,97088.22
2019-04-10T09:23:42.903Z,97088.95
2019-04-10T09:26:05.953Z,97091.88
2019-04-10T09:28:34.832Z,97090.75
2019-04-10T09:31:03.373Z,97093.44
2019-04-10T09:33:32.436Z,97094.45
2019-04-10T09:36:00.962Z,97093.20
2019-04-10T09:38:30.523Z,97091.23
2019-04-10T09:40:59.423Z,97096.82
2019-04-10T09:43:27.932Z,97098.81
2019-04-10T09:45:56.423Z,97097.17
2019-04-10T09:48:25.049Z,97102.19
2019-04-10T09:50:53.460Z,97095.70
2019-04-10T09:53:22.341Z,97102.95
2019-04-10T09:55:50.858Z,97100.27
2019-04-10T09:58:19.876Z,97100.97
2019-04-10T10:00:48.346Z,97103.35
2019-04-10T10:03:17.380Z,97099.14
2019-04-10T10:05:46.684Z,97099.95
2019-04-10T10:08:16.145Z,97100.70
2019-04-10T10:10:45.013Z,97102.63
2019-04-10T10:13:13.445Z,97093.12
2019-04-10T10:15:41.861Z,97100.98
2019-04-10T10:18:10.946Z,97100.02
2019-04-10T10:20:39.665Z,97101.60
2019-04-10T10:23:08.128Z,97097.80
2019-04-10T10:25:37.465Z,97090.33
2019-04-10T10:28:06.988Z,97101.83
2019-04-10T10:30:35.726Z,97095.25
2019-04-10T10:33:05.552Z,97093.53
2019-04-10T10:35:34.009Z,97097.02
2019-04-10T10:38:03.807Z,97092.00
2019-04-10T10:40:32.381Z,97087.97
2019-04-10T10:43:00.788Z,97099.22
2019-04-10T10:45:29.269Z,97092.25
2019-04-10T10:47:57.778Z,97093.04
2019-04-10T10:50:28.913Z,97099.89
2019-04-10T10:52:57.665Z,97100.39
2019-04-10T10:55:26.019Z,97102.95
2019-04-10T10:57:55.398Z,97102.08
2019-04-10T11:00:23.812Z,97102.25
2019-04-10T11:02:52.241Z,97101.54
2019-04-10T11:05:21.119Z,97102.50
2019-04-10T11:07:51.375Z,97105.23
2019-04-10T11:12:50.733Z,97101.39
2019-04-10T11:15:20.192Z,97100.91
2019-04-10T11:17:49.865Z,97111.06
2019-04-10T11:20:20.469Z,97106.85
2019-04-10T11:22:49.639Z,97106.85
2019-04-10T11:25:18.154Z,97103.60
2019-04-10T11:27:47.538Z,97100.84
2019-04-10T11:30:16.168Z,97106.64
2019-04-10T11:32:44.646Z,97103.30
2019-04-10T11:35:13.202Z,97096.33
2019-04-10T11:37:44.763Z,97100.37
2019-04-10T11:40:13.024Z,97105.63
2019-04-10T11:42:42.977Z,97102.83
2019-04-10T11:45:16.198Z,97107.43
2019-04-10T11:47:42.677Z,97105.63
2019-04-10T11:52:49.986Z,97103.39
2019-04-10T11:55:16.936Z,97101.08
2019-04-10T11:57:45.901Z,97104.63
2019-04-10T12:00:18.836Z,97103.56
2019-04-10T12:02:49.295Z,97108.48
2019-04-10T12:05:19.918Z,97108.88
2019-04-10T12:12:48.168Z,97110.50
2019-04-10T12:15:17.256Z,97108.11
2019-04-10T12:17:46.519Z,97113.17
2019-04-10T12:20:16.651Z,97107.45
2019-04-10T12:22:46.083Z,97107.45
2019-04-10T12:25:15.519Z,97111.30
2019-04-10T12:27:45.079Z,97115.55
2019-04-10T12:30:13.838Z,97118.36
2019-04-10T12:32:43.074Z,97116.12
2019-04-10T12:35:11.518Z,97117.88
2019-04-10T12:37:39.893Z,97114.22
2019-04-10T12:40:09.761Z,97118.02
2019-04-10T12:42:38.724Z,97118.34
2019-04-10T12:45:08.296Z,97117.31
2019-04-10T12:47:37.724Z,97120.03
2019-04-10T12:50:08.104Z,97119.00
2019-04-10T12:52:36.750Z,97121.53
2019-04-10T12:55:08.259Z,97120.58
2019-04-10T12:57:37.083Z,97127.50
2019-04-10T13:00:09.840Z,97126.87
2019-04-10T13:02:38.649Z,97127.27
2019-04-10T13:05:07.426Z,97123.70
2019-04-10T13:07:36.039Z,97130.45
2019-04-10T13:10:27.429Z,97121.79
2019-04-10T13:12:55.924Z,97123.14
2019-04-10T13:15:25.503Z,97126.95
2019-04-10T13:17:54.025Z,97130.29
2019-04-10T13:20:22.404Z,97131.00
2019-04-10T13:22:50.847Z,97132.27
2019-04-10T13:25:19.328Z,97119.80
2019-04-10T13:27:47.844Z,97127.67
2019-04-10T13:30:16.633Z,97127.31
2019-04-10T13:32:44.906Z,97129.13
2019-04-10T13:35:13.717Z,97131.41
2019-04-10T13:37:42.089Z,97131.41
2019-04-10T13:40:11.244Z,97134.58
2019-04-10T13:42:39.714Z,97132.83
2019-04-10T13:45:08.481Z,97130.72
2019-04-10T13:47:36.896Z,97132.28
2019-04-10T13:50:06.821Z,97129.13
2019-04-10T13:52:36.971Z,97128.23
2019-04-10T13:55:07.397Z,97131.28
2019-04-10T13:57:36.995Z,97130.09
2019-04-10T14:00:06.401Z,97131.12
2019-04-10T14:02:37.533Z,97122.27
2019-04-10T14:05:09.993Z,97132.75
2019-04-10T14:07:38.469Z,97129.64
2019-04-10T14:10:08.684Z,97123.77
2019-04-10T14:12:37.079Z,97133.69
2019-04-10T14:15:05.778Z,97134.31
2019-04-10T14:17:34.112Z,97134.23
2019-04-10T14:20:02.870Z,97136.86
2019-04-10T14:22:31.581Z,97135.98
2019-04-10T14:25:00.970Z,97130.59
2019-04-10T14:27:30.174Z,97132.73
2019-04-10T14:29:58.760Z,97131.61
2019-04-10T14:32:29.239Z,97136.94
2019-04-10T14:34:58.783Z,97135.75
2019-04-10T14:37:27.441Z,97139.64
2019-04-10T14:39:55.975Z,97138.92
2019-04-10T14:42:24.541Z,97140.04
2019-04-10T14:44:53.152Z,97139.09
2019-04-10T14:47:21.884Z,97149.73
2019-04-10T14:49:53.658Z,97144.65
2019-04-10T14:52:21.662Z,97147.27
2019-04-10T14:54:50.322Z,97145.59
2019-04-10T14:57:18.948Z,97148.86
2019-04-10T14:59:49.147Z,97147.27
2019-04-10T15:02:18.867Z,97149.58
2019-04-10T15:04:47.215Z,97159.99
2019-04-10T15:07:15.782Z,97160.16
2019-04-10T15:09:44.283Z,97166.27
2019-04-10T15:12:12.659Z,97166.59
2019-04-10T15:14:41.143Z,97165.03
2019-04-10T15:17:09.857Z,97160.03
2019-04-10T15:19:38.158Z,97168.84
2019-04-10T15:22:07.410Z,97165.19
2019-04-10T15:24:35.849Z,97166.30
2019-04-10T15:27:04.789Z,97167.20
2019-04-10T15:29:33.546Z,97168.13
2019-04-10T15:32:02.167Z,97174.08
2019-04-10T15:34:30.665Z,97172.17
2019-04-10T15:36:59.023Z,97172.81
2019-04-10T15:39:33.924Z,97175.91
2019-04-10T15:41:57.517Z,97176.47
2019-04-10T15:44:26.046Z,97178.53
2019-04-10T15:46:54.477Z,97186.23
2019-04-10T15:49:22.999Z,97179.41
2019-04-10T15:51:51.374Z,97183.16
2019-04-10T15:54:19.780Z,97181.70
2019-04-10T15:56:48.313Z,97170.83
2019-04-10T15:59:16.838Z,97178.12
2019-04-10T16:01:45.394Z,97177.58
2019-04-10T16:04:14.883Z,97182.29
2019-04-10T16:06:43.496Z,97181.25
2019-04-10T16:09:14.814Z,97182.50
2019-04-10T16:11:45.923Z,97184.03
2019-04-10T16:14:20.837Z,97180.30
2019-04-10T16:17:02.655Z,97184.66
2019-04-10T16:19:36.595Z,97183.87
2019-04-10T16:22:06.869Z,97190.06
2019-04-10T16:24:35.206Z,97190.86
2019-04-10T16:27:03.645Z,97186.49
2019-04-10T16:29:32.341Z,97186.73
2019-04-10T16:32:00.649Z,97192.13
2019-04-10T16:34:30.124Z,97198.48
2019-04-10T16:36:59.891Z,97195.85
2019-04-10T16:39:28.383Z,97196.59
2019-04-10T16:41:57.875Z,97199.84
2019-04-10T16:44:27.283Z,97196.90
2019-04-10T16:46:55.694Z,97198.48
2019-04-10T16:49:24.634Z,97198.07
2019-04-10T16:51:52.969Z,97199.90
2019-04-10T16:54:21.619Z,97202.60
2019-04-10T16:56:50.282Z,97197.68
2019-04-10T16:59:18.680Z,97202.60
2019-04-10T17:01:47.141Z,97202.52
2019-04-10T17:04:16.735Z,97208.41
2019-04-10T17:06:46.383Z,97208.09
2019-04-10T17:09:16.632Z,97207.85
2019-04-10T17:11:45.248Z,97207.85
2019-04-10T17:14:13.665Z,97210.94
2019-04-10T17:16:42.050Z,97215.55
2019-04-10T17:19:10.443Z,97220.30
2019-04-10T17:21:38.801Z,97220.16
2019-04-10T17:24:07.256Z,97224.28
2019-04-10T17:26:35.721Z,97222.83
2019-04-10T17:29:05.042Z,97224.50
2019-04-10T17:31:34.912Z,97225.13
2019-04-10T17:34:03.784Z,97230.62
2019-04-10T17:36:32.806Z,97228.30
2019-04-10T17:39:02.506Z,97230.21
2019-04-10T17:41:31.416Z,97241.45
2019-04-10T17:44:02.016Z,97232.63
2019-04-10T17:46:31.176Z,97240.34
2019-04-10T17:49:01.094Z,97243.35
2019-04-10T17:51:30.321Z,97252.62
2019-04-10T17:53:59.932Z,97249.13
2019-04-10T17:56:28.506Z,97256.97
2019-04-10T17:58:58.098Z,97255.63
2019-04-10T18:01:27.136Z,97266.41
2019-04-10T18:03:59.005Z,97262.13
2019-04-10T18:06:25.935Z,97268.25
2019-04-10T18:08:54.851Z,97266.90
2019-04-10T18:11:24.543Z,97273.16
2019-04-10T18:13:53.141Z,97273.23
2019-04-10T18:16:23.098Z,97277.12
2019-04-10T18:18:51.782Z,97279.33
2019-04-10T18:21:22.408Z,97284.00
2019-04-10T18:23:51.476Z,97283.02
2019-04-10T18:26:21.083Z,97286.95
2019-04-10T18:28:49.788Z,97289.25
2019-04-10T18:31:18.722Z,97297.96
2019-04-10T18:33:47.292Z,97294.32
2019-04-10T18:36:16.148Z,97304.21
2019-04-10T18:38:44.560Z,97309.91
2019-04-10T18:41:13.764Z,97310.22
2019-04-10T18:43:42.540Z,97318.12
2019-04-10T18:46:14.460Z,97317.63
2019-04-10T18:48:44.237Z,97323.02
2019-04-10T18:51:12.495Z,97328.71
2019-04-10T18:53:42.307Z,97330.86
2019-04-10T18:56:11.229Z,97329.76
2019-04-10T18:58:47.924Z,97333.86
2019-04-10T19:01:34.834Z,97338.70
2019-04-10T19:04:10.404Z,97342.44
2019-04-10T19:06:43.301Z,97339.80
2019-04-10T19:09:18.394Z,97340.59
2019-04-10T19:11:42.027Z,97336.80
2019-04-10T19:14:10.438Z,97341.88
2019-04-10T19:16:39.582Z,97338.70
2019-04-10T19:19:08.487Z,97342.13
2019-04-10T19:21:37.692Z,97342.63
2019-04-10T19:24:06.098Z,97348.02
2019-04-10T19:26:35.572Z,97350.77
2019-04-10T19:29:05.313Z,97350.27
2019-04-10T19:31:36.887Z,97350.22
2019-04-10T19:34:05.211Z,97350.46
2019-04-10T19:36:34.439Z,97357.81
2019-04-10T19:39:03.011Z,97359.16
2019-04-10T19:41:36.214Z,97365.34
2019-04-10T19:44:02.423Z,97367.73
2019-04-10T19:46:31.400Z,97364.30
2019-04-10T19:48:59.879Z,97368.09
2019-04-10T19:51:28.186Z,97368.41
2019-04-10T19:53:57.651Z,97368.41
2019-04-10T19:56:26.674Z,97368.48
2019-04-10T19:58:55.150Z,97370.39
2019-04-10T20:01:26.762Z,97363.65
2019-04-10T20:03:54.227Z,97369.34
2019-04-10T20:06:24.246Z,97376.14
2019-04-10T20:08:53.081Z,97373.00
2019-04-10T20:11:31.883Z,97372.27
2019-04-10T20:13:51.548Z,97372.81
2019-04-10T20:16:20.051Z,97378.84
2019-04-10T20:18:48.765Z,97381.39
2019-04-10T20:21:17.556Z,97381.39
2019-04-10T20:23:46.129Z,97384.33
2019-04-10T20:26:14.818Z,97380.84
2019-04-10T20:28:43.223Z,97377.66
2019-04-10T20:31:13.213Z,97379.25
2019-04-10T20:33:41.686Z,97386.78
2019-04-10T20:36:11.042Z,97390.02
2019-04-10T20:38:39.319Z,97393.32
2019-04-10T20:41:08.671Z,97390.22
2019-04-10T20:43:37.361Z,97395.00
2019-04-10T20:46:06.660Z,97392.36
2019-04-10T20:48:36.138Z,97388.57
2019-04-10T20:51:06.070Z,97394.06
2019-04-10T20:53:34.501Z,97383.95
2019-04-10T20:56:03.028Z,97381.31
2019-04-10T20:58:31.465Z,97385.59
2019-04-10T21:00:59.955Z,97390.78
2019-04-10T21:03:28.452Z,97391.88
2019-04-10T21:05:56.808Z,97392.66
2019-04-10T21:08:25.561Z,97397.05
2019-04-10T21:10:54.807Z,97404.08
2019-04-10T21:13:23.544Z,97405.11
2019-04-10T21:15:52.896Z,97405.50
2019-04-10T21:18:22.184Z,97407.69
2019-04-10T21:20:51.427Z,97411.55
2019-04-10T21:23:19.817Z,97406.64
2019-04-10T21:25:48.134Z,97405.00
2019-04-10T21:28:16.453Z,97410.01
2019-04-10T21:30:52.878Z,97410.45
2019-04-10T21:33:28.873Z,97412.63
2019-04-10T21:35:57.531Z,97415.70
2019-04-10T21:38:25.867Z,97421.96
2019-04-10T21:40:55.287Z,97424.74
2019-04-10T21:43:26.331Z,97431.39
2019-04-10T21:45:55.395Z,97429.88
2019-04-10T21:48:24.607Z,97432.27
2019-04-10T21:50:53.769Z,97429.37
2019-04-10T21:53:22.217Z,97432.76
2019-04-10T21:55:51.445Z,97429.31
2019-04-10T21:58:19.977Z,97433.05
2019-04-10T22:01:01.644Z,97435.70
2019-04-10T22:03:30.159Z,97434.39
2019-04-10T22:06:05.965Z,97437.67
2019-04-10T22:08:39.399Z,97432.15
2019-04-10T22:11:08.545Z,97434.63
2019-04-10T22:13:38.007Z,97434.27
2019-04-10T22:16:09.361Z,97436.67
2019-04-10T22:18:39.337Z,97440.11
2019-04-10T22:21:08.277Z,97441.74
2019-04-10T22:23:36.710Z,97442.16
2019-04-10T22:26:05.277Z,97445.49
2019-04-10T22:28:33.676Z,97443.92
2019-04-10T22:31:02.364Z,97456.52
2019-04-10T22:33:30.733Z,97463.30
2019-04-10T22:36:00.210Z,97460.01
2019-04-10T22:38:29.344Z,97459.40
2019-04-10T22:40:58.111Z,97461.25
2019-04-10T22:43:27.841Z,97456.65
2019-04-10T22:45:57.023Z,97464.06
2019-04-10T22:48:25.366Z,97456.48
2019-04-10T22:50:53.787Z,97462.66
2019-04-10T22:53:23.383Z,97455.33
2019-04-10T22:55:52.850Z,97461.94
2019-04-10T22:58:21.256Z,97455.55
2019-04-10T23:00:50.998Z,97457.17
2019-04-10T23:03:20.226Z,97458.30
2019-04-10T23:05:49.000Z,97456.67
2019-04-10T23:08:17.673Z,97456.92
2019-04-10T23:10:46.100Z,97457.79
2019-04-10T23:13:14.500Z,97460.83
2019-04-10T23:15:43.943Z,97465.25
2019-04-10T23:18:13.061Z,97470.69
2019-04-10T23:20:41.782Z,97467.75
2019-04-10T23:23:10.666Z,97474.78
2019-04-10T23:25:38.975Z,97474.27
2019-04-10T23:28:07.493Z,97476.73
2019-04-10T23:30:37.087Z,97482.88
2019-04-10T23:33:05.936Z,97485.94
2019-04-10T23:35:34.336Z,97484.59
2019-04-10T23:38:03.573Z,97493.13
2019-04-10T23:40:32.770Z,97494.95
2019-04-10T23:43:09.635Z,97497.35
2019-04-10T23:45:31.504Z,97499.08
2019-04-10T23:48:00.347Z,97493.13
2019-04-10T23:50:30.189Z,97500.13
2019-04-10T23:52:58.650Z,97502.56
2019-04-10T23:55:27.926Z,97505.27
2019-04-10T23:57:56.387Z,97504.79
